Time;durP1;ratioP1;P1;durP2;ratioP2;P2;SDS_P1;SDS_P2;PMS_P1;PMS_P2;Temp;Humidity;BMP_temperature;BMP_pressure;BME280_temperature;BME280_humidity;BME280_pressure;Samples;Min_cycle;Max_cycle;Signal;HPM_P1;HPM_P2
2022/01/05 00:00:52;;;;;;;42.23;25.70;;;7.30;99.90;;;;;;5049144;28;20856;-72
2022/01/05 00:03:19;;;;;;;38.97;24.73;;;7.10;99.90;;;;;;5049615;28;20470;-72
2022/01/05 00:05:46;;;;;;;30.30;22.17;;;7.10;99.90;;;;;;5049105;28;20491;-72
2022/01/05 00:08:14;;;;;;;40.57;23.13;;;7.20;99.90;;;;;;5049237;28;20994;-73
2022/01/05 00:10:41;;;;;;;35.40;24.43;;;7.20;99.90;;;;;;5049322;28;20979;-72
2022/01/05 00:13:09;;;;;;;33.53;22.37;;;7.30;99.90;;;;;;5049435;28;20518;-72
2022/01/05 00:15:36;;;;;;;30.73;23.17;;;7.40;99.90;;;;;;5049455;28;20510;-72
2022/01/05 00:18:04;;;;;;;35.43;23.40;;;7.50;99.90;;;;;;5049433;28;20502;-73
2022/01/05 00:20:31;;;;;;;33.23;24.90;;;7.70;99.90;;;;;;5049503;28;20952;-71
2022/01/05 00:22:58;;;;;;;32.60;23.10;;;8.50;99.90;;;;;;5049048;28;20489;-72
2022/01/05 00:25:26;;;;;;;32.50;23.57;;;7.80;99.90;;;;;;5049102;28;20456;-72
2022/01/05 00:27:53;;;;;;;31.50;24.67;;;7.90;99.90;;;;;;5049127;28;20472;-72
2022/01/05 00:30:22;;;;;;;36.10;24.80;;;7.90;99.90;;;;;;5049384;28;20441;-72
2022/01/05 00:32:49;;;;;;;37.33;25.03;;;7.70;99.90;;;;;;5049259;28;20457;-72
2022/01/05 00:35:16;;;;;;;37.23;24.83;;;7.70;99.90;;;;;;5048843;28;20468;-72
2022/01/05 00:37:43;;;;;;;41.23;24.77;;;7.70;99.90;;;;;;5048886;28;20480;-72
2022/01/05 00:40:11;;;;;;;32.70;24.67;;;7.80;99.90;;;;;;5051546;28;20455;-71
2022/01/05 00:42:38;;;;;;;33.07;24.57;;;7.60;99.90;;;;;;5053333;28;20463;-72
2022/01/05 00:45:07;;;;;;;33.43;21.90;;;7.50;99.90;;;;;;5053336;28;20455;-72
2022/01/05 00:47:35;;;;;;;38.10;24.37;;;7.40;99.90;;;;;;5053217;28;20824;-72
2022/01/05 00:50:02;;;;;;;30.40;22.50;;;7.40;99.90;;;;;;5053164;28;20449;-72
2022/01/05 00:52:29;;;;;;;33.40;23.30;;;7.40;99.90;;;;;;5053067;28;20460;-72
2022/01/05 00:54:56;;;;;;;33.77;24.50;;;7.50;99.90;;;;;;5053086;28;20452;-72
2022/01/05 00:57:23;;;;;;;35.80;22.43;;;7.50;99.90;;;;;;5052967;28;20973;-71
2022/01/05 00:59:50;;;;;;;33.67;22.33;;;7.70;99.90;;;;;;5052904;28;20499;-70
2022/01/05 01:02:17;;;;;;;36.73;22.77;;;7.80;99.90;;;;;;5052399;28;21018;-71
2022/01/05 01:04:46;;;;;;;35.17;22.53;;;7.90;99.90;;;;;;5052708;28;20456;-72
2022/01/05 01:07:13;;;;;;;30.43;22.40;;;7.90;99.90;;;;;;5052404;28;21015;-72
2022/01/05 01:09:41;;;;;;;36.73;23.10;;;8.00;99.90;;;;;;5053038;28;20449;-72
2022/01/05 01:12:09;;;;;;;29.93;24.40;;;7.90;99.90;;;;;;5052811;28;20452;-72
2022/01/05 01:14:36;;;;;;;35.20;23.70;;;7.70;99.90;;;;;;5052737;28;20460;-73
2022/01/05 01:17:03;;;;;;;30.87;22.60;;;7.80;99.90;;;;;;5052451;28;20456;-72
2022/01/05 01:19:31;;;;;;;36.97;22.90;;;7.70;99.90;;;;;;5052284;28;21009;-72
2022/01/05 01:21:59;;;;;;;33.23;23.30;;;7.70;99.90;;;;;;5051955;28;21019;-72
2022/01/05 01:24:26;;;;;;;32.37;23.40;;;7.80;99.90;;;;;;5052437;28;20872;-72
2022/01/05 01:26:53;;;;;;;29.53;22.20;;;7.80;99.90;;;;;;5052504;28;20448;-73
2022/01/05 01:29:20;;;;;;;31.30;21.90;;;7.90;99.90;;;;;;5052597;28;20502;-72
2022/01/05 01:31:49;;;;;;;24.07;19.20;;;7.90;99.90;;;;;;5052436;28;20483;-72
2022/01/05 01:34:17;;;;;;;31.50;23.00;;;7.90;99.90;;;;;;5052229;28;20459;-72
2022/01/05 01:36:44;;;;;;;31.37;21.17;;;7.80;99.90;;;;;;5051939;28;20902;-72
2022/01/05 01:39:12;;;;;;;28.10;22.00;;;7.80;99.90;;;;;;5051743;28;20488;-72
2022/01/05 01:41:39;;;;;;;30.97;21.93;;;7.90;99.90;;;;;;5052170;28;20456;-72
2022/01/05 01:44:07;;;;;;;27.90;21.13;;;7.90;99.90;;;;;;5051876;28;20514;-72
2022/01/05 01:46:34;;;;;;;36.00;22.57;;;8.00;99.90;;;;;;5052237;28;20488;-73
2022/01/05 01:49:01;;;;;;;29.30;18.77;;;8.10;99.90;;;;;;5051923;28;20550;-72
2022/01/05 01:51:28;;;;;;;32.70;21.00;;;8.10;99.90;;;;;;5051084;28;20949;-71
2022/01/05 01:53:55;;;;;;;26.13;20.23;;;8.20;99.90;;;;;;5051829;28;20460;-72
2022/01/05 01:56:26;;;;;;;27.97;19.67;;;8.10;99.90;;;;;;5051967;28;20460;-72
2022/01/05 01:58:54;;;;;;;30.53;21.40;;;8.00;99.90;;;;;;5051366;28;20965;-73
2022/01/05 02:01:21;;;;;;;26.77;22.53;;;8.10;99.90;;;;;;5051988;28;20860;-73
2022/01/05 02:03:48;;;;;;;27.60;20.23;;;8.20;99.90;;;;;;5051917;28;20808;-72
2022/01/05 02:06:15;;;;;;;32.83;22.40;;;8.20;99.90;;;;;;5051488;28;21068;-73
2022/01/05 02:08:42;;;;;;;27.70;20.77;;;8.20;99.90;;;;;;5051245;28;20526;-72
2022/01/05 02:11:12;;;;;;;26.93;19.10;;;8.10;99.90;;;;;;5051435;28;20453;-72
2022/01/05 02:13:41;;;;;;;27.77;20.70;;;8.10;99.90;;;;;;5051553;28;20453;-71
2022/01/05 02:16:08;;;;;;;29.90;21.43;;;8.20;99.90;;;;;;5051654;28;20461;-72
2022/01/05 02:21:22;;;;;;;25.53;17.47;;;8.10;99.90;;;;;;5051603;28;20452;-73
2022/01/05 02:23:49;;;;;;;32.80;20.93;;;8.30;99.90;;;;;;5051010;28;20457;-73
2022/01/05 02:26:16;;;;;;;24.50;17.37;;;8.30;99.90;;;;;;5051331;28;20558;-72
2022/01/05 02:28:44;;;;;;;27.37;18.00;;;8.40;99.90;;;;;;5051141;28;20477;-73
2022/01/05 02:31:11;;;;;;;27.47;19.40;;;8.40;99.90;;;;;;5051382;28;21010;-72
2022/01/05 02:33:39;;;;;;;30.93;18.53;;;8.30;99.90;;;;;;5051345;28;20480;-72
2022/01/05 02:36:07;;;;;;;26.33;18.87;;;8.30;99.90;;;;;;5050785;28;20981;-72
2022/01/05 02:38:36;;;;;;;24.27;17.87;;;8.40;99.90;;;;;;5051050;28;20489;-73
2022/01/05 02:41:08;;;;;;;21.53;16.83;;;8.20;99.90;;;;;;5051018;28;20449;-72
2022/01/05 02:43:35;;;;;;;23.43;16.67;;;8.30;99.90;;;;;;5051001;28;20953;-72
2022/01/05 02:46:03;;;;;;;23.30;16.77;;;8.30;99.90;;;;;;5051062;28;20453;-72
2022/01/05 02:48:30;;;;;;;22.33;17.60;;;8.20;99.90;;;;;;5051064;28;20479;-72
2022/01/05 02:50:57;;;;;;;23.50;17.53;;;8.20;99.90;;;;;;5050659;28;20790;-71
2022/01/05 02:53:24;;;;;;;24.77;18.53;;;8.30;99.90;;;;;;5050983;28;21011;-72
2022/01/05 02:55:54;;;;;;;30.73;18.70;;;8.40;99.90;;;;;;5050766;28;20540;-72
2022/01/05 02:58:21;;;;;;;27.50;17.87;;;8.40;99.90;;;;;;5050665;28;20473;-72
2022/01/05 03:00:48;;;;;;;22.10;16.13;;;8.40;99.90;;;;;;5050737;28;20579;-73
2022/01/05 03:03:15;;;;;;;24.87;16.57;;;8.50;99.90;;;;;;5050558;28;20465;-72
2022/01/05 03:05:42;;;;;;;25.30;18.33;;;8.30;99.90;;;;;;5050351;28;20492;-71
2022/01/05 03:08:09;;;;;;;23.93;18.37;;;8.30;99.90;;;;;;5050327;28;20477;-72
2022/01/05 03:10:37;;;;;;;25.70;18.27;;;8.30;99.90;;;;;;5050577;28;20457;-73
2022/01/05 03:13:05;;;;;;;25.53;16.90;;;8.40;99.90;;;;;;5050515;28;20855;-72
2022/01/05 03:15:32;;;;;;;24.03;16.37;;;8.40;99.90;;;;;;5050446;28;20463;-71
2022/01/05 03:17:59;;;;;;;23.37;17.70;;;8.30;99.90;;;;;;5049886;28;21046;-72
2022/01/05 03:20:28;;;;;;;21.10;16.10;;;8.20;99.90;;;;;;5050294;28;20492;-73
2022/01/05 03:22:55;;;;;;;27.33;16.40;;;8.30;99.90;;;;;;5050173;28;20453;-72
2022/01/05 03:25:22;;;;;;;22.60;16.40;;;8.30;99.90;;;;;;5050393;28;20457;-72
2022/01/05 03:27:50;;;;;;;25.00;16.50;;;8.20;99.90;;;;;;5050060;28;20473;-72
2022/01/05 03:30:21;;;;;;;23.63;17.60;;;8.00;99.90;;;;;;5050308;28;20531;-71
2022/01/05 03:33:08;;;;;;;23.03;17.23;;;8.10;99.90;;;;;;5049573;28;20452;-72
2022/01/05 03:35:36;;;;;;;25.30;17.47;;;8.20;99.90;;;;;;5050214;28;20465;-71
2022/01/05 03:38:04;;;;;;;25.00;18.40;;;8.10;99.90;;;;;;5050192;28;20479;-73
2022/01/05 03:40:32;;;;;;;21.13;17.37;;;8.00;99.90;;;;;;5050050;28;20586;-72
2022/01/05 03:42:59;;;;;;;28.33;19.53;;;7.90;99.90;;;;;;5049500;28;20460;-72
2022/01/05 03:45:28;;;;;;;31.43;20.20;;;7.90;99.90;;;;;;5049455;28;20870;-71
2022/01/05 03:47:55;;;;;;;26.53;19.93;;;7.80;99.90;;;;;;5049915;28;20476;-72
2022/01/05 03:50:22;;;;;;;30.83;23.77;;;7.60;99.90;;;;;;5049872;28;20933;-72
2022/01/05 03:52:49;;;;;;;36.80;24.80;;;7.50;99.90;;;;;;5049733;28;20464;-72
2022/01/05 03:55:16;;;;;;;32.70;21.70;;;7.30;99.90;;;;;;5049340;28;20459;-72
2022/01/05 03:57:43;;;;;;;27.23;20.03;;;7.10;99.90;;;;;;5049680;28;20545;-72
2022/01/05 04:00:11;;;;;;;34.70;22.60;;;7.10;99.90;;;;;;5049548;28;20843;-72
2022/01/05 04:02:40;;;;;;;32.80;23.63;;;7.10;99.90;;;;;;5049633;28;20963;-72
2022/01/05 04:05:08;;;;;;;29.77;20.33;;;7.00;99.90;;;;;;5049386;28;20533;-72
2022/01/05 04:07:35;;;;;;;27.27;20.53;;;7.10;99.90;;;;;;5049563;28;20904;-73
2022/01/05 04:10:02;;;;;;;32.17;20.60;;;6.90;99.90;;;;;;5049083;28;20958;-71
2022/01/05 04:12:29;;;;;;;32.60;19.50;;;7.00;99.90;;;;;;5049480;28;20483;-72
2022/01/05 04:14:56;;;;;;;29.00;21.07;;;6.90;99.90;;;;;;5048754;28;20461;-72
2022/01/05 04:17:23;;;;;;;31.43;20.33;;;6.80;99.90;;;;;;5049323;28;20474;-71
2022/01/05 04:19:52;;;;;;;28.37;20.97;;;6.80;99.90;;;;;;5049574;28;20513;-71
2022/01/05 04:22:19;;;;;;;31.53;21.70;;;6.80;99.90;;;;;;5049428;28;20464;-72
2022/01/05 04:24:46;;;;;;;25.90;19.70;;;6.80;99.90;;;;;;5049349;28;20480;-72
2022/01/05 04:27:15;;;;;;;25.43;20.20;;;6.80;99.90;;;;;;5049363;28;20887;-72
2022/01/05 04:29:42;;;;;;;28.00;19.40;;;6.80;99.90;;;;;;5049490;28;20462;-71
2022/01/05 04:32:10;;;;;;;30.47;19.23;;;6.80;99.90;;;;;;5049467;28;20455;-71
2022/01/05 04:34:38;;;;;;;29.87;21.87;;;6.80;99.90;;;;;;5049421;28;20479;-72
2022/01/05 04:37:07;;;;;;;26.87;19.00;;;6.80;99.90;;;;;;5049125;28;20869;-72
2022/01/05 04:39:35;;;;;;;27.07;19.97;;;6.70;99.90;;;;;;5049086;28;20499;-72
2022/01/05 04:42:02;;;;;;;28.07;19.70;;;6.80;99.90;;;;;;5049059;28;20451;-72
2022/01/05 04:44:30;;;;;;;26.27;18.17;;;6.90;99.90;;;;;;5049296;28;20450;-72
2022/01/05 04:46:57;;;;;;;26.40;20.30;;;7.00;99.90;;;;;;5049217;28;20512;-71
2022/01/05 04:49:24;;;;;;;23.00;18.57;;;7.00;99.90;;;;;;5049359;28;20459;-72
2022/01/05 04:51:51;;;;;;;29.03;21.13;;;6.90;99.90;;;;;;5049121;28;20472;-72
2022/01/05 04:54:19;;;;;;;23.93;18.97;;;7.00;99.90;;;;;;5049239;28;20467;-72
2022/01/05 04:56:46;;;;;;;27.27;18.77;;;7.10;99.90;;;;;;5049152;28;20450;-71
2022/01/05 04:59:14;;;;;;;28.93;20.00;;;7.20;99.90;;;;;;5049040;28;20807;-72
2022/01/05 05:01:41;;;;;;;35.87;22.80;;;7.30;99.90;;;;;;5049067;28;20456;-72
2022/01/05 05:04:08;;;;;;;26.73;18.20;;;7.20;99.90;;;;;;5049230;28;20447;-73
2022/01/05 05:06:35;;;;;;;31.83;20.83;;;7.20;99.90;;;;;;5048848;28;20979;-72
2022/01/05 05:09:03;;;;;;;25.63;18.10;;;7.00;99.90;;;;;;5048958;28;20477;-72
2022/01/05 05:11:31;;;;;;;24.87;21.30;;;6.80;99.90;;;;;;5049056;28;20453;-72
2022/01/05 05:13:58;;;;;;;27.17;19.00;;;6.90;99.90;;;;;;5049094;28;20446;-72
2022/01/05 05:16:25;;;;;;;22.33;17.53;;;7.00;99.90;;;;;;5049067;28;20935;-72
2022/01/05 05:18:52;;;;;;;28.17;18.97;;;7.10;99.90;;;;;;5048707;28;20483;-73
2022/01/05 05:21:19;;;;;;;24.20;17.40;;;7.10;99.90;;;;;;5048575;28;20492;-72
2022/01/05 05:23:46;;;;;;;26.70;18.40;;;7.00;99.90;;;;;;5048688;28;20453;-71
2022/01/05 05:26:13;;;;;;;27.63;18.53;;;7.20;99.90;;;;;;5049621;28;20478;-73
2022/01/05 05:28:42;;;;;;;31.40;21.37;;;7.10;99.90;;;;;;5052617;28;20518;-74
2022/01/05 05:31:09;;;;;;;28.70;21.10;;;6.80;99.90;;;;;;5052627;28;20455;-73
2022/01/05 05:33:36;;;;;;;25.13;19.57;;;6.70;99.90;;;;;;5052407;28;20458;-73
2022/01/05 05:36:03;;;;;;;30.47;19.87;;;6.70;99.90;;;;;;5052144;28;20512;-73
2022/01/05 05:38:30;;;;;;;26.50;20.03;;;6.80;99.90;;;;;;5052052;28;20534;-74
2022/01/05 05:40:57;;;;;;;24.47;19.53;;;6.90;99.90;;;;;;5052229;28;20483;-75
2022/01/05 05:43:25;;;;;;;23.63;20.93;;;6.90;99.90;;;;;;5052252;28;20456;-74
2022/01/05 05:45:53;;;;;;;29.50;18.67;;;7.00;99.90;;;;;;5052012;28;20604;-74
2022/01/05 05:48:20;;;;;;;26.90;18.23;;;7.00;99.90;;;;;;5051632;28;20471;-72
2022/01/05 05:50:47;;;;;;;24.20;18.63;;;7.10;99.90;;;;;;5052220;28;20854;-75
2022/01/05 05:53:15;;;;;;;24.23;18.07;;;7.20;99.90;;;;;;5052118;28;20521;-76
2022/01/05 05:55:42;;;;;;;27.87;19.53;;;7.30;99.90;;;;;;5052197;28;20448;-73
2022/01/05 05:58:09;;;;;;;27.27;20.40;;;7.30;99.90;;;;;;5052119;28;20474;-74
2022/01/05 06:00:36;;;;;;;30.50;21.93;;;7.20;99.90;;;;;;5052013;28;20555;-77
2022/01/05 06:03:05;;;;;;;32.67;22.73;;;7.20;99.90;;;;;;5052040;28;20520;-77
2022/01/05 06:05:32;;;;;;;35.33;22.73;;;7.10;99.90;;;;;;5051642;28;20923;-79
2022/01/05 06:08:00;;;;;;;32.13;21.40;;;6.80;99.90;;;;;;5052359;28;20971;-70
2022/01/05 06:10:28;;;;;;;32.50;21.97;;;6.80;99.90;;;;;;5052090;28;20497;-73
2022/01/05 06:12:55;;;;;;;33.43;24.53;;;6.80;99.90;;;;;;5052022;28;20537;-76
2022/01/05 06:15:22;;;;;;;39.57;30.23;;;6.90;99.90;;;;;;5051449;28;20923;-77
2022/01/05 06:17:49;;;;;;;31.20;23.00;;;6.80;99.90;;;;;;5051862;28;20480;-74
2022/01/05 06:20:18;;;;;;;28.43;22.47;;;6.90;99.90;;;;;;5052292;28;21060;-74
2022/01/05 06:22:45;;;;;;;36.27;24.07;;;6.90;99.90;;;;;;5051732;28;21048;-73
2022/01/05 06:25:14;;;;;;;33.43;23.60;;;6.80;99.90;;;;;;5051615;28;20939;-73
2022/01/05 06:27:42;;;;;;;37.77;22.83;;;6.70;99.90;;;;;;5051483;28;20527;-74
2022/01/05 06:30:11;;;;;;;33.43;23.53;;;6.90;99.90;;;;;;5051379;28;20529;-72
2022/01/05 06:32:43;;;;;;;30.80;22.60;;;7.00;99.90;;;;;;5051287;28;20452;-72
2022/01/05 06:35:11;;;;;;;33.40;22.80;;;7.00;99.90;;;;;;5051255;28;20563;-72
2022/01/05 06:37:42;;;;;;;26.40;21.20;;;6.80;99.90;;;;;;5049369;28;20477;-73
2022/01/05 06:40:09;;;;;;;36.33;24.53;;;6.90;99.90;;;;;;5050732;28;21046;-74
2022/01/05 06:42:36;;;;;;;29.10;21.20;;;7.00;99.90;;;;;;5050979;28;20448;-73
2022/01/05 06:45:06;;;;;;;30.80;23.10;;;7.00;99.90;;;;;;5051066;28;20449;-73
2022/01/05 06:47:33;;;;;;;33.33;23.60;;;7.00;99.90;;;;;;5051078;28;20587;-73
2022/01/05 06:50:00;;;;;;;35.40;24.90;;;7.10;99.90;;;;;;5050998;28;20883;-71
2022/01/05 06:52:27;;;;;;;31.60;23.17;;;7.20;99.90;;;;;;5051096;28;20935;-70
2022/01/05 06:54:55;;;;;;;29.87;22.50;;;7.10;99.90;;;;;;5050763;28;21251;-72
2022/01/05 06:57:23;;;;;;;35.33;24.80;;;7.20;99.90;;;;;;5050673;28;20475;-73
2022/01/05 06:59:50;;;;;;;42.80;31.63;;;7.30;99.90;;;;;;5050608;28;20498;-73
2022/01/05 07:02:17;;;;;;;38.67;28.10;;;7.30;99.90;;;;;;5050707;28;20464;-72
2022/01/05 07:04:44;;;;;;;42.10;27.03;;;7.30;99.90;;;;;;5050537;28;20455;-73
2022/01/05 07:07:12;;;;;;;34.97;24.93;;;7.40;99.90;;;;;;5050755;28;20533;-76
2022/01/05 07:09:39;;;;;;;31.10;23.10;;;7.50;99.90;;;;;;5050525;28;20530;-75
2022/01/05 07:12:10;;;;;;;37.80;25.07;;;7.60;99.90;;;;;;5050569;28;20938;-77
2022/01/05 07:14:37;;;;;;;33.43;23.90;;;7.80;99.90;;;;;;5050649;28;20458;-76
2022/01/05 07:17:05;;;;;;;33.33;23.80;;;7.80;99.90;;;;;;5050703;28;20460;-76
2022/01/05 07:19:32;;;;;;;37.80;25.07;;;7.80;99.90;;;;;;5050611;28;20476;-76
2022/01/05 07:21:59;;;;;;;39.83;25.00;;;7.80;99.90;;;;;;5050650;28;20871;-80
2022/01/05 07:24:26;;;;;;;37.83;26.93;;;7.90;99.90;;;;;;5050646;28;20444;-72
2022/01/05 07:26:54;;;;;;;43.27;25.93;;;8.00;99.90;;;;;;5050250;28;20947;-71
2022/01/05 07:29:22;;;;;;;43.47;28.00;;;8.20;99.90;;;;;;5050592;28;20903;-75
2022/01/05 07:31:49;;;;;;;41.43;28.70;;;8.40;99.90;;;;;;5050371;28;20454;-78
2022/01/05 07:34:18;;;;;;;35.87;24.83;;;8.50;99.90;;;;;;5049910;28;20457;-80
2022/01/05 07:36:45;;;;;;;39.27;28.40;;;8.60;99.90;;;;;;5050146;28;20464;-77
2022/01/05 07:39:13;;;;;;;31.33;24.80;;;8.70;99.90;;;;;;5050131;28;20457;-76
2022/01/05 07:41:40;;;;;;;41.10;30.13;;;8.80;99.90;;;;;;5050098;28;20887;-75
2022/01/05 07:44:08;;;;;;;37.23;30.27;;;8.90;99.90;;;;;;5050183;28;20448;-75
2022/01/05 07:46:36;;;;;;;44.17;35.10;;;9.00;99.90;;;;;;5050079;28;20453;-76
2022/01/05 07:49:05;;;;;;;44.97;38.63;;;9.10;99.90;;;;;;5049417;28;20823;-76
2022/01/05 07:51:32;;;;;;;50.13;38.53;;;9.40;99.90;;;;;;5050177;28;20454;-74
2022/01/05 07:54:00;;;;;;;48.70;38.13;;;9.50;99.90;;;;;;5050018;28;20487;-74
2022/01/05 07:56:27;;;;;;;55.40;41.60;;;9.50;99.90;;;;;;5048336;28;20458;-75
2022/01/05 07:58:55;;;;;;;45.80;34.47;;;9.60;99.90;;;;;;5049802;28;20497;-76
2022/01/05 08:01:23;;;;;;;41.20;29.17;;;9.70;99.90;;;;;;5049784;28;20554;-76
2022/01/05 08:03:52;;;;;;;36.63;25.60;;;9.70;99.90;;;;;;5049821;28;20450;-73
2022/01/05 08:06:19;;;;;;;32.97;24.77;;;9.80;99.90;;;;;;5049290;28;20496;-76
2022/01/05 08:08:48;;;;;;;31.40;21.57;;;10.00;99.90;;;;;;5049475;28;20840;-77
2022/01/05 08:11:16;;;;;;;28.63;20.70;;;10.00;99.90;;;;;;5049891;28;20450;-75
2022/01/05 08:13:43;;;;;;;24.03;18.13;;;10.20;99.90;;;;;;5049993;28;20461;-76
2022/01/05 08:16:12;;;;;;;34.00;19.77;;;10.30;99.90;;;;;;5049274;28;20459;-74
2022/01/05 08:18:39;;;;;;;28.27;19.50;;;10.50;99.90;;;;;;5049380;28;20478;-71
2022/01/05 08:21:07;;;;;;;31.43;20.90;;;10.70;99.90;;;;;;5049779;28;20494;-72
2022/01/05 08:23:35;;;;;;;27.00;18.77;;;10.80;99.90;;;;;;5049680;28;20458;-77
2022/01/05 08:26:02;;;;;;;30.03;19.80;;;11.10;99.90;;;;;;5049795;28;20925;-75
2022/01/05 08:28:29;;;;;;;27.00;20.40;;;11.30;99.90;;;;;;5049631;28;20480;-74
2022/01/05 08:30:57;;;;;;;27.83;20.60;;;11.30;99.90;;;;;;5049515;28;20454;-76
2022/01/05 08:33:24;;;;;;;25.37;20.50;;;11.60;99.90;;;;;;5049535;28;20463;-74
2022/01/05 08:35:51;;;;;;;24.87;18.17;;;11.70;99.90;;;;;;5049594;28;20508;-77
2022/01/05 08:38:20;;;;;;;30.13;17.53;;;11.90;99.90;;;;;;5049558;28;20497;-73
2022/01/05 08:40:49;;;;;;;24.40;16.80;;;11.90;99.90;;;;;;5049627;28;20486;-77
2022/01/05 08:43:16;;;;;;;20.53;15.20;;;12.10;99.90;;;;;;5049568;28;20506;-75
2022/01/05 08:45:44;;;;;;;18.37;15.20;;;12.40;99.90;;;;;;5049419;28;20454;-75
2022/01/05 08:48:11;;;;;;;18.83;14.07;;;12.70;99.90;;;;;;5049328;28;20481;-76
2022/01/05 08:50:39;;;;;;;18.30;13.23;;;12.90;99.90;;;;;;5049412;28;20454;-74
2022/01/05 08:53:08;;;;;;;17.10;13.27;;;13.10;99.90;;;;;;5049518;28;20481;-74
2022/01/05 08:55:38;;;;;;;21.13;13.00;;;13.30;99.90;;;;;;5049702;28;20461;-74
2022/01/05 08:58:06;;;;;;;17.60;13.27;;;13.50;99.90;;;;;;5049244;28;20469;-76
2022/01/05 09:03:56;;;;;;;19.07;16.03;;;13.70;99.90;;;;;;5053359;28;20412;-76
2022/01/05 09:06:23;;;;;;;25.60;13.30;;;13.60;99.90;;;;;;5052494;28;20851;-74
2022/01/05 09:08:50;;;;;;;16.40;12.90;;;13.80;99.90;;;;;;5052951;28;20559;-75
2022/01/05 09:11:19;;;;;;;16.70;12.63;;;14.10;99.90;;;;;;5052825;28;20452;-75
2022/01/05 09:13:46;;;;;;;17.53;13.50;;;14.10;99.50;;;;;;5053000;28;20511;-74
2022/01/05 09:16:13;;;;;;;20.73;13.10;;;14.10;99.20;;;;;;5052972;28;20461;-75
2022/01/05 09:18:40;;;;;;;14.97;12.77;;;14.30;98.80;;;;;;5052428;28;20474;-75
2022/01/05 09:21:08;;;;;;;17.57;12.63;;;14.70;96.90;;;;;;5052637;28;20555;-74
2022/01/05 09:23:35;;;;;;;16.40;12.93;;;14.80;96.30;;;;;;5052579;28;20932;-75
2022/01/05 09:26:03;;;;;;;18.00;13.27;;;14.90;96.10;;;;;;5052690;28;20480;-75
2022/01/05 09:28:31;;;;;;;15.23;12.27;;;15.00;95.70;;;;;;5052724;28;20491;-75
2022/01/05 09:30:58;;;;;;;24.07;13.37;;;15.00;95.60;;;;;;5052430;28;21024;-76
2022/01/05 09:33:25;;;;;;;15.00;10.97;;;15.10;94.70;;;;;;5052395;28;20548;-75
2022/01/05 09:36:02;;;;;;;15.77;9.63;;;15.30;94.40;;;;;;5052058;28;20499;-73
2022/01/05 09:41:56;;;;;;;15.73;9.70;;;15.30;93.30;;;;;;5051856;28;20469;-73
2022/01/05 09:44:11;;;;;;;15.40;11.63;;;15.50;92.90;;;;;;5052139;28;20557;-74
2022/01/05 09:46:48;;;;;;;14.77;10.83;;;15.00;92.80;;;;;;5052067;28;20515;-75
2022/01/05 09:49:23;;;;;;;17.10;10.90;;;14.90;93.70;;;;;;5052100;28;20458;-74
2022/01/05 09:51:54;;;;;;;16.53;11.33;;;15.10;94.10;;;;;;5051765;28;20965;-75
2022/01/05 09:54:22;;;;;;;15.87;10.20;;;15.50;92.90;;;;;;5051908;28;20446;-75
2022/01/05 09:56:50;;;;;;;13.33;9.70;;;15.30;92.30;;;;;;5051593;28;20470;-74
2022/01/05 09:59:19;;;;;;;12.60;9.27;;;15.50;92.40;;;;;;5051974;28;20451;-74
2022/01/05 10:01:46;;;;;;;11.77;9.00;;;15.60;92.20;;;;;;5051897;28;20989;-74
2022/01/05 10:04:14;;;;;;;14.03;10.90;;;15.80;92.00;;;;;;5051757;28;20511;-74
2022/01/05 10:06:41;;;;;;;14.17;10.77;;;16.00;91.70;;;;;;5051339;28;20525;-74
2022/01/05 10:09:09;;;;;;;15.60;11.00;;;16.30;91.80;;;;;;5051580;28;20477;-74
2022/01/05 10:11:37;;;;;;;14.40;11.47;;;16.60;90.80;;;;;;5051237;28;20496;-74
2022/01/05 10:14:06;;;;;;;13.97;9.80;;;16.70;90.60;;;;;;5051474;28;20507;-74
2022/01/05 10:16:34;;;;;;;17.13;10.87;;;16.80;90.70;;;;;;5051289;28;20462;-74
2022/01/05 10:19:01;;;;;;;17.00;11.43;;;16.90;88.80;;;;;;5051323;28;20477;-74
2022/01/05 10:21:35;;;;;;;19.57;11.50;;;16.80;88.80;;;;;;5051489;28;20493;-74
2022/01/05 10:24:03;;;;;;;14.47;10.20;;;16.90;87.40;;;;;;5051459;28;20454;-74
2022/01/05 10:26:31;;;;;;;24.87;13.50;;;17.00;87.30;;;;;;5051469;28;20449;-75
2022/01/05 10:29:00;;;;;;;18.00;13.13;;;17.10;88.00;;;;;;5050521;28;20481;-72
2022/01/05 10:31:30;;;;;;;19.37;12.10;;;17.30;87.70;;;;;;5051325;28;20834;-75
2022/01/05 10:34:00;;;;;;;18.27;14.00;;;17.50;86.70;;;;;;5050827;28;20457;-74
2022/01/05 10:36:45;;;;;;;17.93;14.17;;;17.60;85.30;;;;;;5050989;28;20853;-74
2022/01/05 10:39:12;;;;;;;17.37;13.87;;;17.70;85.30;;;;;;5050758;28;20519;-74
2022/01/05 10:41:41;;;;;;;19.77;15.50;;;17.60;84.20;;;;;;5051072;28;20490;-74
2022/01/05 10:44:11;;;;;;;26.67;14.30;;;17.70;84.60;;;;;;5050772;28;20461;-74
2022/01/05 10:46:40;;;;;;;19.70;17.20;;;17.90;83.70;;;;;;5050670;28;20457;-73
2022/01/05 10:49:08;;;;;;;15.13;12.10;;;18.20;83.30;;;;;;5050863;28;20474;-74
2022/01/05 10:51:37;;;;;;;13.70;11.20;;;18.40;82.50;;;;;;5050875;28;20813;-74
2022/01/05 10:54:12;;;;;;;17.37;12.07;;;18.70;80.20;;;;;;5050819;28;20503;-75
2022/01/05 10:56:39;;;;;;;17.63;10.80;;;19.00;78.50;;;;;;5050461;28;20460;-74
2022/01/05 10:59:07;;;;;;;25.53;14.87;;;19.20;76.90;;;;;;5050610;28;20481;-74
2022/01/05 11:01:34;;;;;;;23.40;16.80;;;19.30;75.60;;;;;;5050599;28;20482;-75
2022/01/05 11:04:17;;;;;;;19.70;12.50;;;19.40;76.40;;;;;;5050696;28;20871;-75
2022/01/05 11:07:03;;;;;;;47.50;22.80;;;19.60;75.00;;;;;;5049947;28;20521;-74
2022/01/05 11:09:31;;;;;;;14.77;11.30;;;19.80;72.90;;;;;;5050553;28;20473;-75
2022/01/05 11:11:59;;;;;;;15.03;11.57;;;20.00;73.20;;;;;;5050599;28;20446;-75
2022/01/05 11:14:31;;;;;;;17.23;13.30;;;20.20;71.50;;;;;;5050145;28;20438;-75
2022/01/05 11:17:00;;;;;;;22.13;12.40;;;20.20;70.30;;;;;;5050560;28;20454;-75
2022/01/05 11:19:29;;;;;;;16.00;14.23;;;20.10;69.20;;;;;;5050331;28;20466;-74
2022/01/05 11:22:02;;;;;;;17.33;12.27;;;20.10;70.00;;;;;;5050208;28;20572;-75
2022/01/05 11:24:31;;;;;;;18.77;12.40;;;19.80;70.00;;;;;;5049428;28;20894;-75
2022/01/05 11:26:58;;;;;;;15.97;11.90;;;19.80;70.30;;;;;;5050065;28;20512;-75
2022/01/05 11:29:26;;;;;;;28.00;16.67;;;20.10;70.20;;;;;;5050291;28;20826;-75
2022/01/05 11:31:54;;;;;;;27.47;15.73;;;20.30;69.40;;;;;;5050288;28;20624;-75
2022/01/05 11:34:23;;;;;;;15.50;11.50;;;20.50;68.20;;;;;;5049786;28;20456;-75
2022/01/05 11:36:51;;;;;;;18.43;13.13;;;20.40;67.40;;;;;;5049747;28;20457;-75
2022/01/05 11:39:18;;;;;;;21.30;12.67;;;20.60;68.20;;;;;;5050172;28;20489;-77
2022/01/05 11:41:48;;;;;;;18.23;13.10;;;20.70;68.60;;;;;;5050264;28;20490;-74
2022/01/05 11:44:18;;;;;;;15.63;10.50;;;21.00;67.00;;;;;;5050115;28;20988;-75
2022/01/05 11:46:46;;;;;;;13.43;10.30;;;21.20;66.10;;;;;;5050239;28;20482;-74
2022/01/05 11:49:16;;;;;;;19.13;11.10;;;21.30;65.40;;;;;;5049992;28;20829;-75
2022/01/05 11:51:49;;;;;;;14.60;10.83;;;21.30;64.40;;;;;;5049998;28;20457;-75
2022/01/05 11:54:20;;;;;;;15.47;11.00;;;21.20;64.30;;;;;;5050031;28;20450;-75
2022/01/05 11:56:49;;;;;;;19.93;12.37;;;21.40;64.60;;;;;;5049874;28;20851;-75
2022/01/05 11:59:26;;;;;;;18.03;12.00;;;21.70;64.30;;;;;;5049610;28;20458;-76
2022/01/05 12:02:02;;;;;;;17.47;12.27;;;22.00;62.60;;;;;;5049522;28;20520;-75
2022/01/05 12:04:30;;;;;;;13.87;11.87;;;21.90;61.90;;;;;;5049953;28;20536;-76
2022/01/05 12:07:08;;;;;;;15.20;12.63;;;21.90;62.90;;;;;;5049439;28;20517;-76
2022/01/05 12:09:39;;;;;;;13.70;11.53;;;22.20;61.70;;;;;;5049510;28;20922;-75
2022/01/05 12:12:31;;;;;;;14.23;11.47;;;22.30;61.90;;;;;;5049481;28;20572;-75
2022/01/05 12:15:00;;;;;;;14.67;11.13;;;22.50;61.20;;;;;;5039261;28;20552;-76
2022/01/05 12:17:28;;;;;;;16.73;12.10;;;22.50;60.40;;;;;;5049569;28;20495;-74
2022/01/05 12:20:14;;;;;;;22.37;12.40;;;22.60;60.60;;;;;;5049386;28;20457;-75
2022/01/05 12:22:42;;;;;;;14.83;11.60;;;22.80;60.00;;;;;;5049115;28;20588;-69
2022/01/05 12:25:20;;;;;;;17.20;12.73;;;23.10;58.30;;;;;;5049376;28;20467;-76
2022/01/05 12:28:05;;;;;;;21.13;11.20;;;22.70;58.70;;;;;;5049257;28;20910;-75
2022/01/05 12:30:42;;;;;;;16.90;12.40;;;22.90;59.10;;;;;;5049255;28;20755;-75
2022/01/05 12:33:17;;;;;;;18.00;13.10;;;23.20;58.60;;;;;;5048985;28;20445;-75
2022/01/05 12:36:00;;;;;;;15.87;11.20;;;23.40;57.60;;;;;;5051295;28;20788;-74
2022/01/05 12:38:36;;;;;;;16.83;11.87;;;23.50;57.30;;;;;;5053675;28;20568;-74
2022/01/05 12:41:36;;;;;;;17.93;13.53;;;23.50;57.10;;;;;;5053387;28;20458;-74
2022/01/05 12:44:33;;;;;;;18.07;13.17;;;23.50;56.50;;;;;;5044919;28;20473;-74
2022/01/05 12:47:01;;;;;;;19.83;13.10;;;23.60;56.80;;;;;;5049463;28;20486;-74
2022/01/05 12:49:31;;;;;;;22.23;12.30;;;23.80;56.60;;;;;;5052813;28;20828;-74